sensor_id;sensor_type;location;lat;lon;timestamp;P1;durP1;ratioP1;P2;durP2;ratioP2
67272;SDS011;54190;49.770;9.250;2022-11-02T00:01:27;13.07;;;8.23;;
67272;SDS011;54190;49.770;9.250;2022-11-02T00:03:57;11.67;;;7.67;;
67272;SDS011;54190;49.770;9.250;2022-11-02T00:06:23;11.33;;;7.40;;
67272;SDS011;54190;49.770;9.250;2022-11-02T00:08:49;13.93;;;7.83;;
67272;SDS011;54190;49.770;9.250;2022-11-02T00:11:14;14.47;;;6.97;;
67272;SDS011;54190;49.770;9.250;2022-11-02T00:13:40;6.97;;;4.80;;
67272;SDS011;54190;49.770;9.250;2022-11-02T00:16:07;7.50;;;4.57;;
67272;SDS011;54190;49.770;9.250;2022-11-02T00:18:36;8.43;;;4.60;;
67272;SDS011;54190;49.770;9.250;2022-11-02T00:21:03;8.30;;;5.33;;
67272;SDS011;54190;49.770;9.250;2022-11-02T00:23:29;7.57;;;4.77;;
67272;SDS011;54190;49.770;9.250;2022-11-02T00:25:56;7.23;;;4.63;;
67272;SDS011;54190;49.770;9.250;2022-11-02T00:28:22;11.60;;;5.30;;
67272;SDS011;54190;49.770;9.250;2022-11-02T00:30:48;9.63;;;5.00;;
67272;SDS011;54190;49.770;9.250;2022-11-02T00:33:14;7.83;;;5.20;;
67272;SDS011;54190;49.770;9.250;2022-11-02T00:35:40;13.13;;;5.23;;
67272;SDS011;54190;49.770;9.250;2022-11-02T00:38:06;12.20;;;4.67;;
67272;SDS011;54190;49.770;9.250;2022-11-02T00:40:32;10.50;;;4.93;;
67272;SDS011;54190;49.770;9.250;2022-11-02T00:42:57;8.77;;;4.47;;
67272;SDS011;54190;49.770;9.250;2022-11-02T00:45:23;8.17;;;4.77;;
67272;SDS011;54190;49.770;9.250;2022-11-02T00:47:49;12.30;;;5.90;;
67272;SDS011;54190;49.770;9.250;2022-11-02T00:50:17;8.40;;;4.67;;
67272;SDS011;54190;49.770;9.250;2022-11-02T00:52:43;8.27;;;4.87;;
67272;SDS011;54190;49.770;9.250;2022-11-02T00:55:09;12.83;;;5.40;;
67272;SDS011;54190;49.770;9.250;2022-11-02T00:57:38;11.30;;;5.63;;
67272;SDS011;54190;49.770;9.250;2022-11-02T01:00:07;8.50;;;5.10;;
67272;SDS011;54190;49.770;9.250;2022-11-02T01:02:34;12.20;;;5.67;;
67272;SDS011;54190;49.770;9.250;2022-11-02T01:05:01;12.63;;;4.87;;
67272;SDS011;54190;49.770;9.250;2022-11-02T01:07:28;10.87;;;5.00;;
67272;SDS011;54190;49.770;9.250;2022-11-02T01:09:53;13.77;;;4.90;;
67272;SDS011;54190;49.770;9.250;2022-11-02T01:12:19;13.47;;;4.57;;
67272;SDS011;54190;49.770;9.250;2022-11-02T01:14:46;6.97;;;4.83;;
67272;SDS011;54190;49.770;9.250;2022-11-02T01:17:13;6.83;;;4.30;;
67272;SDS011;54190;49.770;9.250;2022-11-02T01:19:40;6.00;;;4.30;;
67272;SDS011;54190;49.770;9.250;2022-11-02T01:22:06;8.60;;;5.37;;
67272;SDS011;54190;49.770;9.250;2022-11-02T01:24:33;7.03;;;4.63;;
67272;SDS011;54190;49.770;9.250;2022-11-02T01:26:58;8.73;;;5.17;;
67272;SDS011;54190;49.770;9.250;2022-11-02T01:29:24;9.70;;;4.90;;
67272;SDS011;54190;49.770;9.250;2022-11-02T01:31:50;9.43;;;4.80;;
67272;SDS011;54190;49.770;9.250;2022-11-02T01:34:18;11.97;;;5.23;;
67272;SDS011;54190;49.770;9.250;2022-11-02T01:36:45;11.03;;;4.80;;
67272;SDS011;54190;49.770;9.250;2022-11-02T01:39:11;9.83;;;4.37;;
67272;SDS011;54190;49.770;9.250;2022-11-02T01:41:38;6.23;;;4.17;;
67272;SDS011;54190;49.770;9.250;2022-11-02T01:44:04;6.77;;;4.90;;
67272;SDS011;54190;49.770;9.250;2022-11-02T01:46:49;7.43;;;4.10;;
67272;SDS011;54190;49.770;9.250;2022-11-02T01:49:18;11.40;;;4.00;;
67272;SDS011;54190;49.770;9.250;2022-11-02T01:51:45;8.27;;;3.60;;
67272;SDS011;54190;49.770;9.250;2022-11-02T01:55:03;6.03;;;3.70;;
67272;SDS011;54190;49.770;9.250;2022-11-02T01:57:50;7.33;;;3.93;;
67272;SDS011;54190;49.770;9.250;2022-11-02T02:00:20;5.57;;;3.70;;
67272;SDS011;54190;49.770;9.250;2022-11-02T02:02:48;5.13;;;3.60;;
67272;SDS011;54190;49.770;9.250;2022-11-02T02:05:22;7.33;;;3.77;;
67272;SDS011;54190;49.770;9.250;2022-11-02T02:07:49;6.47;;;4.50;;
67272;SDS011;54190;49.770;9.250;2022-11-02T02:10:16;5.97;;;3.87;;
67272;SDS011;54190;49.770;9.250;2022-11-02T02:12:42;6.23;;;4.00;;
67272;SDS011;54190;49.770;9.250;2022-11-02T02:15:08;8.70;;;4.40;;
67272;SDS011;54190;49.770;9.250;2022-11-02T02:17:46;6.47;;;4.37;;
67272;SDS011;54190;49.770;9.250;2022-11-02T02:20:23;5.70;;;4.07;;
67272;SDS011;54190;49.770;9.250;2022-11-02T02:29:23;6.43;;;4.20;;
67272;SDS011;54190;49.770;9.250;2022-11-02T02:32:12;4.83;;;3.63;;
67272;SDS011;54190;49.770;9.250;2022-11-02T02:34:52;4.53;;;3.30;;
67272;SDS011;54190;49.770;9.250;2022-11-02T02:40:10;5.37;;;3.60;;
67272;SDS011;54190;49.770;9.250;2022-11-02T02:45:22;5.40;;;3.10;;
67272;SDS011;54190;49.770;9.250;2022-11-02T02:48:08;5.77;;;3.10;;
67272;SDS011;54190;49.770;9.250;2022-11-02T02:51:11;5.43;;;3.13;;
67272;SDS011;54190;49.770;9.250;2022-11-02T02:53:35;5.90;;;3.10;;
67272;SDS011;54190;49.770;9.250;2022-11-02T02:56:06;4.77;;;2.70;;
67272;SDS011;54190;49.770;9.250;2022-11-02T03:01:15;9.17;;;2.93;;
67272;SDS011;54190;49.770;9.250;2022-11-02T03:03:42;12.30;;;3.43;;
67272;SDS011;54190;49.770;9.250;2022-11-02T03:06:17;6.07;;;3.03;;
67272;SDS011;54190;49.770;9.250;2022-11-02T03:15:08;6.33;;;3.27;;
67272;SDS011;54190;49.770;9.250;2022-11-02T03:17:54;5.97;;;3.00;;
67272;SDS011;54190;49.770;9.250;2022-11-02T03:20:43;7.77;;;3.20;;
67272;SDS011;54190;49.770;9.250;2022-11-02T03:26:03;4.40;;;2.50;;
67272;SDS011;54190;49.770;9.250;2022-11-02T03:28:39;4.97;;;2.70;;
67272;SDS011;54190;49.770;9.250;2022-11-02T03:36:45;6.47;;;3.07;;
67272;SDS011;54190;49.770;9.250;2022-11-02T03:39:17;7.70;;;2.43;;
67272;SDS011;54190;49.770;9.250;2022-11-02T03:41:50;6.73;;;2.70;;
67272;SDS011;54190;49.770;9.250;2022-11-02T03:44:20;11.07;;;3.00;;
67272;SDS011;54190;49.770;9.250;2022-11-02T03:46:49;6.57;;;2.57;;
67272;SDS011;54190;49.770;9.250;2022-11-02T03:49:20;7.80;;;2.37;;
67272;SDS011;54190;49.770;9.250;2022-11-02T03:51:48;3.90;;;2.13;;
67272;SDS011;54190;49.770;9.250;2022-11-02T03:54:20;13.50;;;3.63;;
67272;SDS011;54190;49.770;9.250;2022-11-02T03:57:03;4.57;;;2.33;;
67272;SDS011;54190;49.770;9.250;2022-11-02T03:59:34;5.37;;;2.90;;
67272;SDS011;54190;49.770;9.250;2022-11-02T04:02:01;6.43;;;2.40;;
67272;SDS011;54190;49.770;9.250;2022-11-02T04:04:28;10.53;;;2.57;;
67272;SDS011;54190;49.770;9.250;2022-11-02T04:06:54;9.17;;;2.77;;
67272;SDS011;54190;49.770;9.250;2022-11-02T04:09:20;9.80;;;2.57;;
67272;SDS011;54190;49.770;9.250;2022-11-02T04:11:46;7.03;;;2.33;;
67272;SDS011;54190;49.770;9.250;2022-11-02T04:14:31;8.20;;;2.50;;
67272;SDS011;54190;49.770;9.250;2022-11-02T04:17:07;7.63;;;2.37;;
67272;SDS011;54190;49.770;9.250;2022-11-02T04:19:54;3.47;;;2.03;;
67272;SDS011;54190;49.770;9.250;2022-11-02T04:22:21;5.83;;;2.00;;
67272;SDS011;54190;49.770;9.250;2022-11-02T04:25:13;13.03;;;3.20;;
67272;SDS011;54190;49.770;9.250;2022-11-02T04:27:43;14.30;;;2.53;;
67272;SDS011;54190;49.770;9.250;2022-11-02T04:30:11;6.70;;;2.40;;
67272;SDS011;54190;49.770;9.250;2022-11-02T04:32:45;6.77;;;2.77;;
67272;SDS011;54190;49.770;9.250;2022-11-02T04:35:37;5.50;;;2.33;;
67272;SDS011;54190;49.770;9.250;2022-11-02T04:38:03;6.90;;;2.20;;
67272;SDS011;54190;49.770;9.250;2022-11-02T04:40:48;6.23;;;2.50;;
67272;SDS011;54190;49.770;9.250;2022-11-02T04:43:34;7.17;;;2.30;;
67272;SDS011;54190;49.770;9.250;2022-11-02T04:46:00;7.70;;;2.10;;
67272;SDS011;54190;49.770;9.250;2022-11-02T04:48:26;14.97;;;3.13;;
67272;SDS011;54190;49.770;9.250;2022-11-02T04:50:52;4.27;;;2.30;;
67272;SDS011;54190;49.770;9.250;2022-11-02T04:53:18;9.23;;;2.47;;
67272;SDS011;54190;49.770;9.250;2022-11-02T04:55:45;5.60;;;2.13;;
67272;SDS011;54190;49.770;9.250;2022-11-02T04:58:11;8.20;;;2.80;;
67272;SDS011;54190;49.770;9.250;2022-11-02T05:00:37;6.73;;;2.67;;
67272;SDS011;54190;49.770;9.250;2022-11-02T05:03:04;10.17;;;2.53;;
67272;SDS011;54190;49.770;9.250;2022-11-02T05:05:30;6.97;;;2.37;;
67272;SDS011;54190;49.770;9.250;2022-11-02T05:07:58;11.80;;;3.23;;
67272;SDS011;54190;49.770;9.250;2022-11-02T05:10:24;10.20;;;2.33;;
67272;SDS011;54190;49.770;9.250;2022-11-02T05:12:57;5.60;;;2.40;;
67272;SDS011;54190;49.770;9.250;2022-11-02T05:15:27;12.63;;;2.30;;
67272;SDS011;54190;49.770;9.250;2022-11-02T05:17:53;5.67;;;2.00;;
67272;SDS011;54190;49.770;9.250;2022-11-02T05:20:18;4.87;;;2.10;;
67272;SDS011;54190;49.770;9.250;2022-11-02T05:22:45;9.40;;;3.00;;
67272;SDS011;54190;49.770;9.250;2022-11-02T05:25:12;8.70;;;2.90;;
67272;SDS011;54190;49.770;9.250;2022-11-02T05:27:38;8.93;;;2.27;;
67272;SDS011;54190;49.770;9.250;2022-11-02T05:30:04;11.17;;;2.83;;
67272;SDS011;54190;49.770;9.250;2022-11-02T05:32:32;4.80;;;2.47;;
67272;SDS011;54190;49.770;9.250;2022-11-02T05:34:59;10.30;;;2.80;;
67272;SDS011;54190;49.770;9.250;2022-11-02T05:37:26;5.57;;;2.33;;
67272;SDS011;54190;49.770;9.250;2022-11-02T05:39:51;9.33;;;2.83;;
67272;SDS011;54190;49.770;9.250;2022-11-02T05:42:17;11.30;;;2.30;;
67272;SDS011;54190;49.770;9.250;2022-11-02T05:44:44;4.70;;;2.23;;
67272;SDS011;54190;49.770;9.250;2022-11-02T05:47:10;7.13;;;2.63;;
67272;SDS011;54190;49.770;9.250;2022-11-02T05:49:36;10.00;;;2.50;;
67272;SDS011;54190;49.770;9.250;2022-11-02T05:52:01;5.87;;;2.40;;
67272;SDS011;54190;49.770;9.250;2022-11-02T05:54:27;8.00;;;2.60;;
67272;SDS011;54190;49.770;9.250;2022-11-02T05:56:53;11.83;;;2.30;;
67272;SDS011;54190;49.770;9.250;2022-11-02T05:59:18;10.00;;;2.63;;
67272;SDS011;54190;49.770;9.250;2022-11-02T06:01:44;12.30;;;2.50;;
67272;SDS011;54190;49.770;9.250;2022-11-02T06:04:10;12.03;;;3.60;;
67272;SDS011;54190;49.770;9.250;2022-11-02T06:06:35;9.53;;;2.60;;
67272;SDS011;54190;49.770;9.250;2022-11-02T06:09:01;6.87;;;2.67;;
67272;SDS011;54190;49.770;9.250;2022-11-02T06:11:27;4.90;;;2.30;;
67272;SDS011;54190;49.770;9.250;2022-11-02T06:13:53;5.47;;;2.30;;
67272;SDS011;54190;49.770;9.250;2022-11-02T06:16:18;9.67;;;2.67;;
67272;SDS011;54190;49.770;9.250;2022-11-02T06:18:44;5.57;;;2.30;;
67272;SDS011;54190;49.770;9.250;2022-11-02T06:21:10;5.80;;;2.50;;
67272;SDS011;54190;49.770;9.250;2022-11-02T06:23:36;6.53;;;2.67;;
67272;SDS011;54190;49.770;9.250;2022-11-02T06:26:03;7.27;;;2.20;;
67272;SDS011;54190;49.770;9.250;2022-11-02T06:28:29;7.47;;;2.40;;
67272;SDS011;54190;49.770;9.250;2022-11-02T06:30:56;8.90;;;2.57;;
67272;SDS011;54190;49.770;9.250;2022-11-02T06:33:22;11.10;;;3.20;;
67272;SDS011;54190;49.770;9.250;2022-11-02T06:35:49;13.53;;;2.83;;
67272;SDS011;54190;49.770;9.250;2022-11-02T06:38:15;9.43;;;3.10;;
67272;SDS011;54190;49.770;9.250;2022-11-02T06:40:41;10.57;;;3.03;;
67272;SDS011;54190;49.770;9.250;2022-11-02T06:43:07;8.50;;;3.30;;
67272;SDS011;54190;49.770;9.250;2022-11-02T06:45:33;7.40;;;3.40;;
67272;SDS011;54190;49.770;9.250;2022-11-02T06:47:59;6.80;;;2.90;;
67272;SDS011;54190;49.770;9.250;2022-11-02T06:50:26;8.37;;;2.80;;
67272;SDS011;54190;49.770;9.250;2022-11-02T06:52:52;6.30;;;2.90;;
67272;SDS011;54190;49.770;9.250;2022-11-02T06:55:17;7.10;;;2.70;;
67272;SDS011;54190;49.770;9.250;2022-11-02T06:57:44;8.80;;;3.20;;
67272;SDS011;54190;49.770;9.250;2022-11-02T07:00:11;7.97;;;2.57;;
67272;SDS011;54190;49.770;9.250;2022-11-02T07:02:42;9.47;;;2.33;;
67272;SDS011;54190;49.770;9.250;2022-11-02T07:05:09;5.90;;;3.00;;
67272;SDS011;54190;49.770;9.250;2022-11-02T07:07:35;8.57;;;3.00;;
67272;SDS011;54190;49.770;9.250;2022-11-02T07:10:01;12.97;;;3.03;;
67272;SDS011;54190;49.770;9.250;2022-11-02T07:12:26;5.60;;;2.30;;
67272;SDS011;54190;49.770;9.250;2022-11-02T07:14:52;8.17;;;2.80;;
67272;SDS011;54190;49.770;9.250;2022-11-02T07:17:18;6.83;;;2.70;;
67272;SDS011;54190;49.770;9.250;2022-11-02T07:19:43;5.70;;;3.03;;
67272;SDS011;54190;49.770;9.250;2022-11-02T07:22:09;6.10;;;2.80;;
67272;SDS011;54190;49.770;9.250;2022-11-02T07:24:35;11.03;;;2.67;;
67272;SDS011;54190;49.770;9.250;2022-11-02T07:27:00;5.80;;;3.10;;
67272;SDS011;54190;49.770;9.250;2022-11-02T07:29:26;11.47;;;2.43;;
67272;SDS011;54190;49.770;9.250;2022-11-02T07:31:52;7.40;;;2.83;;
67272;SDS011;54190;49.770;9.250;2022-11-02T07:34:17;5.27;;;2.60;;
67272;SDS011;54190;49.770;9.250;2022-11-02T07:36:43;11.07;;;3.00;;
67272;SDS011;54190;49.770;9.250;2022-11-02T07:39:10;7.77;;;2.30;;
67272;SDS011;54190;49.770;9.250;2022-11-02T07:41:35;6.73;;;2.70;;
67272;SDS011;54190;49.770;9.250;2022-11-02T07:44:01;8.77;;;3.17;;
67272;SDS011;54190;49.770;9.250;2022-11-02T07:46:51;8.17;;;2.43;;
67272;SDS011;54190;49.770;9.250;2022-11-02T07:49:17;12.00;;;2.53;;
67272;SDS011;54190;49.770;9.250;2022-11-02T07:51:42;6.90;;;3.03;;
67272;SDS011;54190;49.770;9.250;2022-11-02T07:54:08;6.47;;;2.40;;
67272;SDS011;54190;49.770;9.250;2022-11-02T07:56:34;14.43;;;2.67;;
67272;SDS011;54190;49.770;9.250;2022-11-02T07:58:59;7.90;;;2.50;;
67272;SDS011;54190;49.770;9.250;2022-11-02T08:01:25;6.00;;;2.53;;
67272;SDS011;54190;49.770;9.250;2022-11-02T08:03:51;7.50;;;2.53;;
67272;SDS011;54190;49.770;9.250;2022-11-02T08:06:17;8.50;;;2.73;;
67272;SDS011;54190;49.770;9.250;2022-11-02T08:08:42;7.30;;;3.20;;
67272;SDS011;54190;49.770;9.250;2022-11-02T08:11:08;6.07;;;2.20;;
67272;SDS011;54190;49.770;9.250;2022-11-02T08:13:35;11.50;;;3.17;;
67272;SDS011;54190;49.770;9.250;2022-11-02T08:16:01;12.07;;;3.30;;
67272;SDS011;54190;49.770;9.250;2022-11-02T08:18:28;9.70;;;2.67;;
67272;SDS011;54190;49.770;9.250;2022-11-02T08:20:54;8.60;;;2.43;;
67272;SDS011;54190;49.770;9.250;2022-11-02T08:23:21;9.73;;;2.80;;
67272;SDS011;54190;49.770;9.250;2022-11-02T08:25:48;5.83;;;2.97;;
67272;SDS011;54190;49.770;9.250;2022-11-02T08:28:15;10.73;;;2.80;;
67272;SDS011;54190;49.770;9.250;2022-11-02T08:30:46;10.90;;;3.43;;
67272;SDS011;54190;49.770;9.250;2022-11-02T08:33:12;10.40;;;3.33;;
67272;SDS011;54190;49.770;9.250;2022-11-02T08:35:40;6.93;;;2.50;;
67272;SDS011;54190;49.770;9.250;2022-11-02T08:38:07;13.13;;;3.00;;
67272;SDS011;54190;49.770;9.250;2022-11-02T08:40:34;8.90;;;2.77;;
67272;SDS011;54190;49.770;9.250;2022-11-02T08:43:01;8.13;;;2.90;;
67272;SDS011;54190;49.770;9.250;2022-11-02T08:45:32;8.53;;;3.10;;
67272;SDS011;54190;49.770;9.250;2022-11-02T08:47:59;8.50;;;2.60;;
67272;SDS011;54190;49.770;9.250;2022-11-02T08:50:25;9.27;;;3.37;;
67272;SDS011;54190;49.770;9.250;2022-11-02T08:52:51;9.23;;;3.37;;
67272;SDS011;54190;49.770;9.250;2022-11-02T08:55:17;7.97;;;2.73;;
67272;SDS011;54190;49.770;9.250;2022-11-02T08:57:46;8.30;;;2.60;;
67272;SDS011;54190;49.770;9.250;2022-11-02T09:00:13;19.97;;;3.73;;
67272;SDS011;54190;49.770;9.250;2022-11-02T09:02:39;14.67;;;4.30;;
67272;SDS011;54190;49.770;9.250;2022-11-02T09:05:05;10.03;;;3.40;;
67272;SDS011;54190;49.770;9.250;2022-11-02T09:07:31;12.97;;;4.23;;
67272;SDS011;54190;49.770;9.250;2022-11-02T09:09:56;14.50;;;3.40;;
67272;SDS011;54190;49.770;9.250;2022-11-02T09:12:22;6.87;;;3.13;;
67272;SDS011;54190;49.770;9.250;2022-11-02T09:14:48;23.67;;;6.17;;
67272;SDS011;54190;49.770;9.250;2022-11-02T09:17:13;30.43;;;7.30;;
67272;SDS011;54190;49.770;9.250;2022-11-02T09:19:39;9.80;;;3.63;;
67272;SDS011;54190;49.770;9.250;2022-11-02T09:22:05;11.50;;;3.00;;
67272;SDS011;54190;49.770;9.250;2022-11-02T09:24:30;10.40;;;2.73;;
67272;SDS011;54190;49.770;9.250;2022-11-02T09:26:56;9.10;;;2.53;;
67272;SDS011;54190;49.770;9.250;2022-11-02T09:29:22;6.17;;;2.37;;
67272;SDS011;54190;49.770;9.250;2022-11-02T09:31:47;8.80;;;2.83;;
67272;SDS011;54190;49.770;9.250;2022-11-02T09:34:13;9.33;;;3.00;;
67272;SDS011;54190;49.770;9.250;2022-11-02T09:36:39;9.67;;;2.60;;
67272;SDS011;54190;49.770;9.250;2022-11-02T09:39:06;10.17;;;2.60;;
67272;SDS011;54190;49.770;9.250;2022-11-02T09:41:36;7.83;;;2.90;;
67272;SDS011;54190;49.770;9.250;2022-11-02T09:44:12;8.73;;;2.87;;
67272;SDS011;54190;49.770;9.250;2022-11-02T09:46:45;9.67;;;3.20;;
67272;SDS011;54190;49.770;9.250;2022-11-02T09:49:15;6.77;;;2.43;;
67272;SDS011;54190;49.770;9.250;2022-11-02T09:51:49;9.60;;;2.70;;
67272;SDS011;54190;49.770;9.250;2022-11-02T09:56:58;7.83;;;2.43;;
67272;SDS011;54190;49.770;9.250;2022-11-02T09:59:28;11.03;;;3.40;;
67272;SDS011;54190;49.770;9.250;2022-11-02T10:09:52;12.63;;;4.40;;
67272;SDS011;54190;49.770;9.250;2022-11-02T10:15:38;8.80;;;2.67;;
67272;SDS011;54190;49.770;9.250;2022-11-02T10:18:12;8.73;;;2.90;;
67272;SDS011;54190;49.770;9.250;2022-11-02T10:20:51;12.40;;;2.60;;
67272;SDS011;54190;49.770;9.250;2022-11-02T10:23:23;9.00;;;2.50;;
67272;SDS011;54190;49.770;9.250;2022-11-02T10:25:54;8.33;;;2.67;;
67272;SDS011;54190;49.770;9.250;2022-11-02T10:28:22;12.00;;;2.87;;
67272;SDS011;54190;49.770;9.250;2022-11-02T10:30:51;9.57;;;2.17;;
67272;SDS011;54190;49.770;9.250;2022-11-02T10:33:19;7.10;;;2.67;;
67272;SDS011;54190;49.770;9.250;2022-11-02T10:36:08;9.53;;;2.23;;
67272;SDS011;54190;49.770;9.250;2022-11-02T10:39:09;9.93;;;2.33;;
67272;SDS011;54190;49.770;9.250;2022-11-02T10:44:25;8.77;;;2.30;;
67272;SDS011;54190;49.770;9.250;2022-11-02T10:47:08;11.67;;;2.87;;
67272;SDS011;54190;49.770;9.250;2022-11-02T10:50:03;8.37;;;2.40;;
67272;SDS011;54190;49.770;9.250;2022-11-02T10:52:37;8.37;;;2.33;;
67272;SDS011;54190;49.770;9.250;2022-11-02T10:55:08;8.27;;;2.53;;
67272;SDS011;54190;49.770;9.250;2022-11-02T10:57:43;10.93;;;2.67;;
67272;SDS011;54190;49.770;9.250;2022-11-02T11:00:22;8.07;;;2.90;;
67272;SDS011;54190;49.770;9.250;2022-11-02T11:05:37;7.77;;;2.53;;
67272;SDS011;54190;49.770;9.250;2022-11-02T11:11:08;9.93;;;2.20;;
67272;SDS011;54190;49.770;9.250;2022-11-02T11:13:34;5.20;;;1.87;;
67272;SDS011;54190;49.770;9.250;2022-11-02T11:16:00;7.10;;;2.00;;
67272;SDS011;54190;49.770;9.250;2022-11-02T11:18:27;9.47;;;2.57;;
67272;SDS011;54190;49.770;9.250;2022-11-02T11:20:54;9.07;;;2.30;;
67272;SDS011;54190;49.770;9.250;2022-11-02T11:23:22;5.90;;;2.33;;
67272;SDS011;54190;49.770;9.250;2022-11-02T11:25:56;8.10;;;2.73;;
67272;SDS011;54190;49.770;9.250;2022-11-02T11:31:00;10.57;;;2.60;;
67272;SDS011;54190;49.770;9.250;2022-11-02T11:33:29;8.87;;;2.60;;
67272;SDS011;54190;49.770;9.250;2022-11-02T11:35:57;12.80;;;2.70;;
67272;SDS011;54190;49.770;9.250;2022-11-02T11:38:23;7.03;;;2.40;;
67272;SDS011;54190;49.770;9.250;2022-11-02T11:40:52;8.70;;;2.67;;
67272;SDS011;54190;49.770;9.250;2022-11-02T11:43:24;6.13;;;2.30;;
67272;SDS011;54190;49.770;9.250;2022-11-02T11:45:59;11.80;;;2.20;;
67272;SDS011;54190;49.770;9.250;2022-11-02T11:54:08;5.27;;;2.00;;
67272;SDS011;54190;49.770;9.250;2022-11-02T11:56:56;8.27;;;2.13;;
67272;SDS011;54190;49.770;9.250;2022-11-02T11:59:47;5.73;;;2.00;;
67272;SDS011;54190;49.770;9.250;2022-11-02T12:02:20;5.17;;;1.90;;
67272;SDS011;54190;49.770;9.250;2022-11-02T12:04:48;9.83;;;2.43;;
67272;SDS011;54190;49.770;9.250;2022-11-02T12:27:04;6.37;;;2.13;;
67272;SDS011;54190;49.770;9.250;2022-11-02T12:42:54;5.90;;;1.77;;
67272;SDS011;54190;49.770;9.250;2022-11-02T12:45:45;9.43;;;2.67;;
67272;SDS011;54190;49.770;9.250;2022-11-02T12:54:27;9.37;;;2.07;;
67272;SDS011;54190;49.770;9.250;2022-11-02T12:57:11;9.07;;;1.67;;
67272;SDS011;54190;49.770;9.250;2022-11-02T12:59:40;4.33;;;2.00;;
67272;SDS011;54190;49.770;9.250;2022-11-02T13:10:14;7.53;;;2.40;;
67272;SDS011;54190;49.770;9.250;2022-11-02T13:12:43;4.90;;;1.90;;
67272;SDS011;54190;49.770;9.250;2022-11-02T13:15:16;8.20;;;2.20;;
67272;SDS011;54190;49.770;9.250;2022-11-02T13:17:51;10.23;;;2.50;;
67272;SDS011;54190;49.770;9.250;2022-11-02T13:20:26;7.83;;;2.30;;
67272;SDS011;54190;49.770;9.250;2022-11-02T13:23:06;5.73;;;2.00;;
67272;SDS011;54190;49.770;9.250;2022-11-02T13:25:38;6.43;;;2.07;;
67272;SDS011;54190;49.770;9.250;2022-11-02T13:28:10;5.20;;;1.90;;
67272;SDS011;54190;49.770;9.250;2022-11-02T13:31:00;5.77;;;1.80;;
67272;SDS011;54190;49.770;9.250;2022-11-02T13:33:32;5.53;;;2.10;;
67272;SDS011;54190;49.770;9.250;2022-11-02T13:36:05;8.03;;;2.07;;
67272;SDS011;54190;49.770;9.250;2022-11-02T13:38:52;5.37;;;2.07;;
67272;SDS011;54190;49.770;9.250;2022-11-02T13:50:07;7.90;;;2.10;;
67272;SDS011;54190;49.770;9.250;2022-11-02T13:52:38;7.47;;;2.20;;
67272;SDS011;54190;49.770;9.250;2022-11-02T13:55:12;6.67;;;1.90;;
67272;SDS011;54190;49.770;9.250;2022-11-02T13:57:44;11.40;;;2.60;;
67272;SDS011;54190;49.770;9.250;2022-11-02T14:02:47;7.87;;;2.03;;
67272;SDS011;54190;49.770;9.250;2022-11-02T14:05:21;7.97;;;2.23;;
67272;SDS011;54190;49.770;9.250;2022-11-02T14:07:53;4.57;;;1.60;;
67272;SDS011;54190;49.770;9.250;2022-11-02T14:10:23;6.73;;;1.90;;
67272;SDS011;54190;49.770;9.250;2022-11-02T14:12:49;11.50;;;2.30;;
67272;SDS011;54190;49.770;9.250;2022-11-02T14:35:57;9.10;;;2.23;;
67272;SDS011;54190;49.770;9.250;2022-11-02T14:38:33;8.57;;;2.30;;
67272;SDS011;54190;49.770;9.250;2022-11-02T14:46:33;12.83;;;6.00;;
67272;SDS011;54190;49.770;9.250;2022-11-02T14:49:20;16.77;;;8.43;;
67272;SDS011;54190;49.770;9.250;2022-11-02T14:52:39;9.90;;;3.60;;
67272;SDS011;54190;49.770;9.250;2022-11-02T14:59:44;4.53;;;2.50;;
67272;SDS011;54190;49.770;9.250;2022-11-02T15:04:57;11.90;;;6.60;;
67272;SDS011;54190;49.770;9.250;2022-11-02T15:07:36;7.40;;;2.57;;
67272;SDS011;54190;49.770;9.250;2022-11-02T15:12:38;6.23;;;2.07;;
67272;SDS011;54190;49.770;9.250;2022-11-02T15:17:57;7.60;;;2.23;;
67272;SDS011;54190;49.770;9.250;2022-11-02T15:20:31;10.07;;;3.10;;
67272;SDS011;54190;49.770;9.250;2022-11-02T15:23:10;8.83;;;3.00;;
67272;SDS011;54190;49.770;9.250;2022-11-02T15:25:45;6.80;;;2.00;;
67272;SDS011;54190;49.770;9.250;2022-11-02T15:28:15;7.20;;;1.90;;
67272;SDS011;54190;49.770;9.250;2022-11-02T15:30:58;6.67;;;2.20;;
67272;SDS011;54190;49.770;9.250;2022-11-02T15:36:03;6.03;;;1.83;;
67272;SDS011;54190;49.770;9.250;2022-11-02T15:38:31;5.70;;;2.10;;
67272;SDS011;54190;49.770;9.250;2022-11-02T15:57:03;12.30;;;2.47;;
67272;SDS011;54190;49.770;9.250;2022-11-02T16:02:34;5.90;;;2.00;;
67272;SDS011;54190;49.770;9.250;2022-11-02T16:05:02;5.80;;;1.87;;
67272;SDS011;54190;49.770;9.250;2022-11-02T16:07:30;8.30;;;2.20;;
67272;SDS011;54190;49.770;9.250;2022-11-02T16:12:46;5.20;;;1.87;;
67272;SDS011;54190;49.770;9.250;2022-11-02T16:15:20;9.70;;;3.07;;
67272;SDS011;54190;49.770;9.250;2022-11-02T16:17:47;15.73;;;6.37;;
67272;SDS011;54190;49.770;9.250;2022-11-02T16:20:21;24.77;;;14.10;;
67272;SDS011;54190;49.770;9.250;2022-11-02T16:27:54;6.77;;;2.40;;
67272;SDS011;54190;49.770;9.250;2022-11-02T16:30:21;10.90;;;2.20;;
67272;SDS011;54190;49.770;9.250;2022-11-02T16:32:49;7.00;;;2.20;;
67272;SDS011;54190;49.770;9.250;2022-11-02T16:35:22;5.80;;;1.97;;
67272;SDS011;54190;49.770;9.250;2022-11-02T16:37:48;8.37;;;2.13;;
67272;SDS011;54190;49.770;9.250;2022-11-02T16:40:15;6.50;;;2.23;;
67272;SDS011;54190;49.770;9.250;2022-11-02T16:42:44;7.50;;;2.27;;
67272;SDS011;54190;49.770;9.250;2022-11-02T16:45:27;8.40;;;2.27;;
67272;SDS011;54190;49.770;9.250;2022-11-02T16:48:02;6.20;;;1.90;;
67272;SDS011;54190;49.770;9.250;2022-11-02T16:50:58;6.47;;;2.03;;
67272;SDS011;54190;49.770;9.250;2022-11-02T16:53:30;7.57;;;1.93;;
67272;SDS011;54190;49.770;9.250;2022-11-02T16:55:57;5.80;;;2.10;;
67272;SDS011;54190;49.770;9.250;2022-11-02T16:58:43;5.23;;;1.90;;
67272;SDS011;54190;49.770;9.250;2022-11-02T17:01:18;10.13;;;2.50;;
67272;SDS011;54190;49.770;9.250;2022-11-02T17:03:46;7.63;;;4.47;;
67272;SDS011;54190;49.770;9.250;2022-11-02T17:06:12;10.43;;;4.90;;
67272;SDS011;54190;49.770;9.250;2022-11-02T17:08:39;13.80;;;4.53;;
67272;SDS011;54190;49.770;9.250;2022-11-02T17:11:10;12.33;;;5.37;;
67272;SDS011;54190;49.770;9.250;2022-11-02T17:13:58;11.10;;;6.63;;
67272;SDS011;54190;49.770;9.250;2022-11-02T17:16:24;12.53;;;6.50;;
67272;SDS011;54190;49.770;9.250;2022-11-02T17:18:50;16.87;;;7.73;;
67272;SDS011;54190;49.770;9.250;2022-11-02T17:21:23;16.00;;;8.33;;
67272;SDS011;54190;49.770;9.250;2022-11-02T17:23:51;17.57;;;9.30;;
67272;SDS011;54190;49.770;9.250;2022-11-02T17:28:56;24.53;;;14.43;;
67272;SDS011;54190;49.770;9.250;2022-11-02T17:31:34;26.27;;;15.00;;
67272;SDS011;54190;49.770;9.250;2022-11-02T17:34:08;21.13;;;11.60;;
67272;SDS011;54190;49.770;9.250;2022-11-02T17:36:40;18.40;;;8.77;;
67272;SDS011;54190;49.770;9.250;2022-11-02T17:39:08;18.40;;;10.90;;
67272;SDS011;54190;49.770;9.250;2022-11-02T17:41:38;34.90;;;15.80;;
67272;SDS011;54190;49.770;9.250;2022-11-02T17:44:22;26.90;;;13.10;;
67272;SDS011;54190;49.770;9.250;2022-11-02T17:46:48;27.30;;;13.07;;
67272;SDS011;54190;49.770;9.250;2022-11-02T17:49:13;18.93;;;10.37;;
67272;SDS011;54190;49.770;9.250;2022-11-02T17:51:40;16.53;;;6.70;;
67272;SDS011;54190;49.770;9.250;2022-11-02T17:54:07;10.40;;;3.77;;
67272;SDS011;54190;49.770;9.250;2022-11-02T17:56:36;6.27;;;3.53;;
67272;SDS011;54190;49.770;9.250;2022-11-02T17:59:01;9.93;;;4.60;;
67272;SDS011;54190;49.770;9.250;2022-11-02T18:01:27;10.73;;;4.40;;
67272;SDS011;54190;49.770;9.250;2022-11-02T18:03:53;13.60;;;4.63;;
67272;SDS011;54190;49.770;9.250;2022-11-02T18:06:18;8.10;;;3.50;;
67272;SDS011;54190;49.770;9.250;2022-11-02T18:08:44;8.37;;;3.20;;
67272;SDS011;54190;49.770;9.250;2022-11-02T18:11:39;8.23;;;3.30;;